sensor_id;sensor_type;location;lat;lon;timestamp;pressure;altitude;pressure_sealevel;temperature;humidity
22582;BME280;47125;48.542;9.052;2022-11-30T00:07:06;96216.34;;;8.22;nan
22582;BME280;47125;48.542;9.052;2022-11-30T00:17:09;96217.66;;;8.13;nan
22582;BME280;47125;48.542;9.052;2022-11-30T00:27:13;96215.56;;;8.71;nan
22582;BME280;47125;48.542;9.052;2022-11-30T00:37:19;96202.69;;;8.86;nan
22582;BME280;47125;48.542;9.052;2022-11-30T00:47:23;96198.53;;;8.90;nan
22582;BME280;47125;48.542;9.052;2022-11-30T00:57:25;96210.50;;;8.81;nan
22582;BME280;47125;48.542;9.052;2022-11-30T01:07:29;96213.25;;;8.74;nan
22582;BME280;47125;48.542;9.052;2022-11-30T01:17:32;96215.69;;;8.76;nan
22582;BME280;47125;48.542;9.052;2022-11-30T01:27:37;96233.84;;;8.85;nan
22582;BME280;47125;48.542;9.052;2022-11-30T01:37:42;96241.06;;;8.78;nan
22582;BME280;47125;48.542;9.052;2022-11-30T01:47:47;96238.91;;;8.69;nan
22582;BME280;47125;48.542;9.052;2022-11-30T01:57:51;96239.00;;;8.80;nan
22582;BME280;47125;48.542;9.052;2022-11-30T02:07:56;96231.22;;;8.79;nan
22582;BME280;47125;48.542;9.052;2022-11-30T02:18:00;96237.63;;;8.71;nan
22582;BME280;47125;48.542;9.052;2022-11-30T02:28:18;96241.88;;;8.79;nan
22582;BME280;47125;48.542;9.052;2022-11-30T02:38:27;96243.78;;;8.72;nan
22582;BME280;47125;48.542;9.052;2022-11-30T02:48:31;96236.41;;;8.74;nan
22582;BME280;47125;48.542;9.052;2022-11-30T02:58:41;96240.91;;;8.73;nan
22582;BME280;47125;48.542;9.052;2022-11-30T03:08:44;96247.72;;;8.69;nan
22582;BME280;47125;48.542;9.052;2022-11-30T03:18:48;96252.25;;;8.62;nan
22582;BME280;47125;48.542;9.052;2022-11-30T03:28:50;96259.47;;;8.62;nan
22582;BME280;47125;48.542;9.052;2022-11-30T03:38:54;96259.28;;;8.57;nan
22582;BME280;47125;48.542;9.052;2022-11-30T03:48:57;96249.72;;;8.49;nan
22582;BME280;47125;48.542;9.052;2022-11-30T03:59:01;96250.72;;;8.55;nan
22582;BME280;47125;48.542;9.052;2022-11-30T04:09:03;96250.41;;;8.63;nan
22582;BME280;47125;48.542;9.052;2022-11-30T04:19:07;96255.38;;;8.59;nan
22582;BME280;47125;48.542;9.052;2022-11-30T04:29:10;96253.53;;;8.60;nan
22582;BME280;47125;48.542;9.052;2022-11-30T04:39:14;96258.53;;;8.50;nan
22582;BME280;47125;48.542;9.052;2022-11-30T04:49:16;96264.84;;;8.55;nan
22582;BME280;47125;48.542;9.052;2022-11-30T04:59:20;96260.00;;;8.46;nan
22582;BME280;47125;48.542;9.052;2022-11-30T05:09:23;96267.06;;;8.58;nan
22582;BME280;47125;48.542;9.052;2022-11-30T05:19:27;96263.88;;;8.50;nan
22582;BME280;47125;48.542;9.052;2022-11-30T05:29:29;96273.69;;;8.49;nan
22582;BME280;47125;48.542;9.052;2022-11-30T05:39:33;96277.88;;;8.63;nan
22582;BME280;47125;48.542;9.052;2022-11-30T05:49:36;96272.19;;;8.53;nan
22582;BME280;47125;48.542;9.052;2022-11-30T05:59:40;96285.16;;;8.50;nan
22582;BME280;47125;48.542;9.052;2022-11-30T06:09:42;96278.19;;;8.49;nan
22582;BME280;47125;48.542;9.052;2022-11-30T06:19:46;96274.19;;;8.64;nan
22582;BME280;47125;48.542;9.052;2022-11-30T06:29:49;96278.44;;;8.65;nan
22582;BME280;47125;48.542;9.052;2022-11-30T06:39:53;96280.31;;;8.65;nan
22582;BME280;47125;48.542;9.052;2022-11-30T06:50:11;96280.81;;;8.55;nan
22582;BME280;47125;48.542;9.052;2022-11-30T07:00:16;96284.50;;;8.23;nan
22582;BME280;47125;48.542;9.052;2022-11-30T07:10:19;96293.25;;;8.61;nan
22582;BME280;47125;48.542;9.052;2022-11-30T07:20:24;96295.72;;;8.56;nan
22582;BME280;47125;48.542;9.052;2022-11-30T07:30:27;96299.53;;;8.42;nan
22582;BME280;47125;48.542;9.052;2022-11-30T07:40:33;96304.91;;;8.60;nan
22582;BME280;47125;48.542;9.052;2022-11-30T07:50:36;96309.81;;;8.63;nan
22582;BME280;47125;48.542;9.052;2022-11-30T08:00:40;96317.69;;;8.52;nan
22582;BME280;47125;48.542;9.052;2022-11-30T08:10:42;96328.56;;;8.75;nan
22582;BME280;47125;48.542;9.052;2022-11-30T08:20:46;96329.53;;;8.80;nan
22582;BME280;47125;48.542;9.052;2022-11-30T08:30:50;96336.81;;;8.92;nan
22582;BME280;47125;48.542;9.052;2022-11-30T08:40:56;96343.59;;;8.88;nan
22582;BME280;47125;48.542;9.052;2022-11-30T08:50:59;96346.59;;;8.98;nan
22582;BME280;47125;48.542;9.052;2022-11-30T09:01:07;96355.53;;;9.10;nan
22582;BME280;47125;48.542;9.052;2022-11-30T09:11:10;96356.97;;;9.06;nan
22582;BME280;47125;48.542;9.052;2022-11-30T09:21:15;96357.00;;;9.24;nan
22582;BME280;47125;48.542;9.052;2022-11-30T09:31:18;96358.41;;;9.26;nan
22582;BME280;47125;48.542;9.052;2022-11-30T09:41:31;96359.50;;;9.01;nan
22582;BME280;47125;48.542;9.052;2022-11-30T09:51:41;96360.41;;;9.13;nan
22582;BME280;47125;48.542;9.052;2022-11-30T10:01:45;96356.63;;;9.20;nan
22582;BME280;47125;48.542;9.052;2022-11-30T10:11:55;96353.09;;;9.26;nan
22582;BME280;47125;48.542;9.052;2022-11-30T10:22:05;96356.28;;;9.35;nan
22582;BME280;47125;48.542;9.052;2022-11-30T10:32:12;96341.94;;;9.36;nan
22582;BME280;47125;48.542;9.052;2022-11-30T10:42:21;96336.56;;;9.18;nan
22582;BME280;47125;48.542;9.052;2022-11-30T10:52:28;96337.19;;;9.56;nan
22582;BME280;47125;48.542;9.052;2022-11-30T11:02:40;96323.72;;;9.33;nan
22582;BME280;47125;48.542;9.052;2022-11-30T11:12:45;96323.59;;;9.46;nan
22582;BME280;47125;48.542;9.052;2022-11-30T11:22:49;96321.13;;;9.26;nan
22582;BME280;47125;48.542;9.052;2022-11-30T11:32:59;96326.44;;;9.26;nan
22582;BME280;47125;48.542;9.052;2022-11-30T11:43:03;96334.53;;;9.38;nan
22582;BME280;47125;48.542;9.052;2022-11-30T11:53:18;96328.72;;;9.23;nan
22582;BME280;47125;48.542;9.052;2022-11-30T12:03:28;96330.00;;;9.20;nan
22582;BME280;47125;48.542;9.052;2022-11-30T12:13:33;96322.38;;;9.24;nan
22582;BME280;47125;48.542;9.052;2022-11-30T12:23:47;96325.50;;;9.39;nan
22582;BME280;47125;48.542;9.052;2022-11-30T12:33:55;96318.16;;;9.34;nan
22582;BME280;47125;48.542;9.052;2022-11-30T12:54:24;96323.69;;;9.15;nan
22582;BME280;47125;48.542;9.052;2022-11-30T13:04:33;96321.94;;;9.27;nan
22582;BME280;47125;48.542;9.052;2022-11-30T13:14:42;96323.84;;;8.77;nan
22582;BME280;47125;48.542;9.052;2022-11-30T13:24:46;96323.91;;;9.31;nan
22582;BME280;47125;48.542;9.052;2022-11-30T13:34:52;96321.03;;;9.15;nan
22582;BME280;47125;48.542;9.052;2022-11-30T13:44:54;96326.56;;;9.13;nan
22582;BME280;47125;48.542;9.052;2022-11-30T13:54:58;96326.00;;;8.86;nan
22582;BME280;47125;48.542;9.052;2022-11-30T14:25:47;96322.88;;;8.90;nan
22582;BME280;47125;48.542;9.052;2022-11-30T14:35:53;96327.56;;;8.69;nan
22582;BME280;47125;48.542;9.052;2022-11-30T14:45:58;96331.88;;;8.70;nan
22582;BME280;47125;48.542;9.052;2022-11-30T14:56:07;96335.72;;;8.74;nan
22582;BME280;47125;48.542;9.052;2022-11-30T15:06:15;96333.19;;;8.61;nan
22582;BME280;47125;48.542;9.052;2022-11-30T15:16:19;96333.88;;;8.75;nan
22582;BME280;47125;48.542;9.052;2022-11-30T15:26:25;96335.94;;;8.48;nan
22582;BME280;47125;48.542;9.052;2022-11-30T15:36:32;96334.47;;;8.52;nan
22582;BME280;47125;48.542;9.052;2022-11-30T15:46:37;96341.63;;;8.52;nan
22582;BME280;47125;48.542;9.052;2022-11-30T15:56:53;96345.03;;;8.34;nan
22582;BME280;47125;48.542;9.052;2022-11-30T16:06:58;96349.16;;;8.23;nan
22582;BME280;47125;48.542;9.052;2022-11-30T16:17:00;96362.66;;;8.35;nan
22582;BME280;47125;48.542;9.052;2022-11-30T16:27:11;96362.66;;;8.35;nan
22582;BME280;47125;48.542;9.052;2022-11-30T16:37:15;96364.31;;;8.23;nan
22582;BME280;47125;48.542;9.052;2022-11-30T16:47:19;96371.47;;;8.29;nan
22582;BME280;47125;48.542;9.052;2022-11-30T16:57:22;96373.50;;;8.20;nan
22582;BME280;47125;48.542;9.052;2022-11-30T17:07:26;96363.91;;;8.26;nan
22582;BME280;47125;48.542;9.052;2022-11-30T17:17:28;96373.25;;;7.91;nan
22582;BME280;47125;48.542;9.052;2022-11-30T17:27:32;96371.94;;;8.13;nan
22582;BME280;47125;48.542;9.052;2022-11-30T17:37:35;96386.88;;;8.14;nan
22582;BME280;47125;48.542;9.052;2022-11-30T17:47:39;96382.81;;;8.05;nan
22582;BME280;47125;48.542;9.052;2022-11-30T17:57:41;96375.81;;;8.17;nan
22582;BME280;47125;48.542;9.052;2022-11-30T18:07:45;96378.91;;;8.14;nan
22582;BME280;47125;48.542;9.052;2022-11-30T18:17:48;96391.78;;;8.17;nan
22582;BME280;47125;48.542;9.052;2022-11-30T18:27:54;96397.44;;;8.27;nan
22582;BME280;47125;48.542;9.052;2022-11-30T18:37:56;96402.72;;;7.89;nan
22582;BME280;47125;48.542;9.052;2022-11-30T18:48:00;96403.25;;;8.11;nan
22582;BME280;47125;48.542;9.052;2022-11-30T18:58:03;96409.84;;;8.02;nan
22582;BME280;47125;48.542;9.052;2022-11-30T19:08:07;96414.53;;;8.00;nan
22582;BME280;47125;48.542;9.052;2022-11-30T19:18:11;96409.34;;;8.18;nan
22582;BME280;47125;48.542;9.052;2022-11-30T19:28:15;96418.84;;;7.94;nan
22582;BME280;47125;48.542;9.052;2022-11-30T19:38:18;96428.41;;;8.08;nan
22582;BME280;47125;48.542;9.052;2022-11-30T19:48:22;96422.94;;;7.97;nan
22582;BME280;47125;48.542;9.052;2022-11-30T19:58:24;96423.16;;;7.95;nan
22582;BME280;47125;48.542;9.052;2022-11-30T20:08:28;96420.50;;;7.95;nan
22582;BME280;47125;48.542;9.052;2022-11-30T20:18:31;96420.72;;;7.87;nan
22582;BME280;47125;48.542;9.052;2022-11-30T20:28:37;96426.06;;;7.81;nan
22582;BME280;47125;48.542;9.052;2022-11-30T20:38:41;96426.50;;;7.78;nan
22582;BME280;47125;48.542;9.052;2022-11-30T20:48:45;96426.09;;;7.74;nan
22582;BME280;47125;48.542;9.052;2022-11-30T20:58:48;96435.78;;;7.29;nan
22582;BME280;47125;48.542;9.052;2022-11-30T21:08:52;96430.88;;;7.33;nan
22582;BME280;47125;48.542;9.052;2022-11-30T21:18:55;96436.59;;;7.10;nan
22582;BME280;47125;48.542;9.052;2022-11-30T21:28:59;96448.63;;;7.12;nan
22582;BME280;47125;48.542;9.052;2022-11-30T21:39:04;96442.72;;;6.91;nan
22582;BME280;47125;48.542;9.052;2022-11-30T21:49:09;96439.84;;;7.18;nan
22582;BME280;47125;48.542;9.052;2022-11-30T21:59:12;96431.28;;;6.84;nan
22582;BME280;47125;48.542;9.052;2022-11-30T22:09:16;96436.59;;;6.90;nan
22582;BME280;47125;48.542;9.052;2022-11-30T22:19:19;96436.19;;;7.00;nan
22582;BME280;47125;48.542;9.052;2022-11-30T22:29:23;96439.25;;;7.10;nan
22582;BME280;47125;48.542;9.052;2022-11-30T22:39:26;96440.00;;;6.51;nan
22582;BME280;47125;48.542;9.052;2022-11-30T22:49:30;96436.19;;;6.87;nan
22582;BME280;47125;48.542;9.052;2022-11-30T22:59:32;96436.38;;;6.79;nan
22582;BME280;47125;48.542;9.052;2022-11-30T23:09:36;96431.06;;;6.79;nan
22582;BME280;47125;48.542;9.052;2022-11-30T23:19:39;96440.25;;;6.83;nan
22582;BME280;47125;48.542;9.052;2022-11-30T23:29:42;96431.88;;;6.86;nan
22582;BME280;47125;48.542;9.052;2022-11-30T23:39:45;96435.53;;;6.65;nan
22582;BME280;47125;48.542;9.052;2022-11-30T23:49:49;96436.94;;;6.61;nan
22582;BME280;47125;48.542;9.052;2022-11-30T23:59:52;96424.06;;;6.45;nan
